Hyderabad, India

12:11 PM IST on January 18, 2017 (GMT +0530)
R.K.Nagar, Malkajgiri | | Change Station

Elev 1778 ft 17.46 °N, 78.53 °E | Updated 26 seconds ago

Haze
Haze
76.3 °F
Feels Like 77 °F
N
8.9
Wind Variable Wind from SE
Gusts 12.3 mph

Today
High -- | Low -- °F
--% Chance of Precip.
Yesterday
High -- | Low -- °F
Precip. -- in
Pressure 30.12 in
Visibility 3.7 miles
Clouds
Heat Index 77 °F
Dew Point 41 °F
Humidity 28%
Rainfall 0.00 in
Snow Depth Not available.
6:49 AM 6:03 PM
Waning Gibbous, 66% visible
METAR VOHS 180630Z 13006KT 6000 NSC 28/13 Q1020 NOSIG
Pressure 30.12 in
Visibility 3.7 miles
Clouds
Heat Index 77 °F
Dew Point 41 °F
Humidity 28%
Rainfall 0.00 in
Snow Depth Not available.
6:49 AM 6:03 PM
Waning Gibbous, 66% visible
METAR VOHS 180630Z 13006KT 6000 NSC 28/13 Q1020 NOSIG

Get Your Daily Forecast Email!

Thanks for signing up!

Be on the lookout for a verification email in your inbox.

You'll start receiving the daily forecast at 8 AM.

×

10-Day Weather Forecast

No radar image for this location.
×

Almanac

Astronomy

Jan. 18, 2017 Rise Set
Actual Time
Civil Twilight
Nautical Twilight
Astronomical Twilight
Moon
Length of Visible Light
Length of Day
Tomorrow will be .
, % of the Moon is Illuminated

Today's Extremes

Country Highs Country Lows

Community

WunderPhotos

Upload Photos

1,962,540 photos uploaded!

WunderBlog® & News

Nearby

Air Quality

  Air Quality AQ Index Pollutant
Not available.

Snow Depth

Station Depth Elevation

Earthquake Activity

City Distance Mag. Time & Date
Minimum magnitude displayed is 2.5.

Coastal Water Temperatures

Place Temperature

Stations

Nearby Weather Stations

Station Location Temp. Windchill Dew Point Humidity Wind Precip. Elev Updated Type